Weather at Orlando International Airport

Public forecast

Using degrees Fahrenheit for public forecast. Weather courtesy of forecast.io.

Current aviation weather report (METAR) for Orlando International Airport

Retrieved 2022/05/19 06:53 UTC (54 minutes ago):

KMCO 190653Z 31004KT 10SM FEW110 23/21 A2999 RMK AO2 SLP154 T02330211

Aviation forecast (TAF) for Orlando International Airport

Retrieved 2022/05/19 06:24 UTC (1 hour ago):

TAF KMCO 190522Z 1906/2012 VRB02KT P6SM FEW110 FM191400 22005KT P6SM SCT040 FM192000 18007KT P6SM VCTS SCT050CB SCT080 SCT250 FM200000 17005KT P6SM SCT070 SCT110